Time;durP1;ratioP1;P1;durP2;ratioP2;P2;SDS_P1;SDS_P2;PMS_P1;PMS_P2;Temp;Humidity;BMP_temperature;BMP_pressure;BME280_temperature;BME280_humidity;BME280_pressure;Samples;Min_cycle;Max_cycle;Signal;HPM_P1;HPM_P2
2022/07/05 00:02:07;;;;;;;;;;;17.90;66.50;;;;;;5052070;28;20008;-79
2022/07/05 00:04:32;;;;;;;;;;;17.90;66.10;;;;;;5049937;28;20313;-79
2022/07/05 00:09:42;;;;;;;;;;;17.90;65.60;;;;;;5051056;28;19931;-80
2022/07/05 00:12:08;;;;;;;;;;;17.80;65.80;;;;;;5050680;28;19921;-79
2022/07/05 00:14:33;;;;;;;;;;;17.90;66.40;;;;;;5048967;28;19917;-79
2022/07/05 00:16:59;;;;;;;;;;;17.90;66.20;;;;;;5050032;28;19920;-79
2022/07/05 00:19:24;;;;;;;;;;;17.90;65.20;;;;;;5045133;28;19999;-79
2022/07/05 00:21:50;;;;;;;;;;;17.80;65.40;;;;;;5051654;28;19920;-79
2022/07/05 00:24:15;;;;;;;;;;;17.70;66.10;;;;;;5053215;28;19943;-79
2022/07/05 00:26:41;;;;;;;;;;;17.70;66.00;;;;;;5055646;28;19909;-78
2022/07/05 00:29:06;;;;;;;;;;;17.70;66.50;;;;;;5051068;28;19996;-79
2022/07/05 00:31:32;;;;;;;;;;;17.80;66.90;;;;;;5054108;28;19932;-78
2022/07/05 00:33:57;;;;;;;;;;;17.70;66.70;;;;;;5052366;28;20460;-78
2022/07/05 00:36:23;;;;;;;;;;;17.70;67.60;;;;;;5048445;28;20016;-79
2022/07/05 00:38:48;;;;;;;;;;;17.60;68.10;;;;;;5046179;28;19913;-79
2022/07/05 00:41:14;;;;;;;;;;;17.60;68.20;;;;;;5054991;28;20000;-79
2022/07/05 00:43:52;;;;;;;;;;;17.50;68.60;;;;;;5053923;28;20262;-79
2022/07/05 00:46:18;;;;;;;;;;;17.40;68.40;;;;;;5056791;28;19998;-79
2022/07/05 00:48:43;;;;;;;;;;;17.50;68.60;;;;;;5055482;28;20370;-79
2022/07/05 00:51:10;;;;;;;;;;;17.40;68.70;;;;;;5054278;28;19913;-79
2022/07/05 00:53:35;;;;;;;;;;;17.30;68.90;;;;;;5054873;28;19908;-79
2022/07/05 00:56:01;;;;;;;;;;;17.30;68.90;;;;;;5047618;28;20071;-78
2022/07/05 00:58:27;;;;;;;;;;;17.30;69.10;;;;;;5053439;28;19917;-79
2022/07/05 01:00:53;;;;;;;;;;;17.30;69.20;;;;;;5054179;28;19913;-79
2022/07/05 01:03:18;;;;;;;;;;;17.20;68.70;;;;;;5053928;28;19916;-79
2022/07/05 01:05:46;;;;;;;;;;;17.10;69.30;;;;;;5053611;28;20352;-79
2022/07/05 01:08:13;;;;;;;;;;;17.10;69.20;;;;;;5053565;28;20300;-78
2022/07/05 01:10:38;;;;;;;;;;;17.10;69.40;;;;;;5045445;28;19909;-79
2022/07/05 01:13:03;;;;;;;;;;;17.10;69.50;;;;;;5048918;28;20362;-80
2022/07/05 01:15:29;;;;;;;;;;;17.10;69.30;;;;;;5050764;28;19916;-79
2022/07/05 01:17:54;;;;;;;;;;;17.10;69.00;;;;;;5051563;28;19960;-79
2022/07/05 01:20:20;;;;;;;;;;;17.10;68.80;;;;;;5053311;28;20408;-79
2022/07/05 01:22:53;;;;;;;;;;;17.00;68.90;;;;;;5051157;28;19967;-79
2022/07/05 01:25:19;;;;;;;;;;;17.00;69.60;;;;;;5059429;28;20365;-79
2022/07/05 01:27:46;;;;;;;;;;;16.90;70.00;;;;;;5053480;28;19924;-80
2022/07/05 01:30:13;;;;;;;;;;;16.90;70.00;;;;;;5052104;28;19909;-80
2022/07/05 01:32:39;;;;;;;;;;;16.90;70.00;;;;;;5054049;28;19912;-79
2022/07/05 01:35:05;;;;;;;;;;;16.80;70.20;;;;;;5054135;28;19920;-79
2022/07/05 01:37:31;;;;;;;;;;;16.80;70.70;;;;;;5052247;28;19920;-80
2022/07/05 01:39:57;;;;;;;;;;;16.80;70.50;;;;;;5054763;28;19912;-80
2022/07/05 01:42:23;;;;;;;;;;;16.70;70.70;;;;;;5046652;28;19971;-80
2022/07/05 01:44:48;;;;;;;;;;;16.80;70.40;;;;;;5054343;28;19913;-80
2022/07/05 01:47:15;;;;;;;;;;;16.80;70.40;;;;;;5052678;28;20003;-80
2022/07/05 01:49:41;;;;;;;;;;;16.80;70.50;;;;;;5053318;28;20309;-80
2022/07/05 01:52:09;;;;;;;;;;;16.60;70.90;;;;;;5052040;28;19966;-78
2022/07/05 01:54:34;;;;;;;;;;;16.70;70.70;;;;;;5052140;28;19921;-79
2022/07/05 01:57:00;;;;;;;;;;;16.80;70.60;;;;;;5045823;28;20033;-80
2022/07/05 01:59:27;;;;;;;;;;;16.90;70.50;;;;;;5052592;28;19908;-80
2022/07/05 02:01:52;;;;;;;;;;;16.90;70.30;;;;;;5048544;28;19913;-80
2022/07/05 02:04:18;;;;;;;;;;;17.00;70.20;;;;;;5068225;28;19919;-80
2022/07/05 02:06:45;;;;;;;;;;;16.90;70.30;;;;;;5053480;28;19913;-80
2022/07/05 02:09:10;;;;;;;;;;;16.80;70.40;;;;;;5053252;28;19913;-79
2022/07/05 02:11:36;;;;;;;;;;;16.80;70.70;;;;;;5052391;28;19916;-79
2022/07/05 02:14:02;;;;;;;;;;;16.40;71.30;;;;;;5053205;28;19963;-80
2022/07/05 02:16:28;;;;;;;;;;;16.40;72.00;;;;;;5051703;28;20351;-79
2022/07/05 02:18:53;;;;;;;;;;;16.50;71.80;;;;;;5052524;28;19912;-80
2022/07/05 02:21:19;;;;;;;;;;;16.60;71.80;;;;;;5054327;28;19908;-80
2022/07/05 02:23:44;;;;;;;;;;;16.50;72.40;;;;;;5052624;28;19975;-80
2022/07/05 02:26:10;;;;;;;;;;;16.50;72.40;;;;;;5051495;28;20318;-80
2022/07/05 02:28:35;;;;;;;;;;;16.60;71.80;;;;;;5052766;28;19927;-80
2022/07/05 02:31:01;;;;;;;;;;;16.60;71.60;;;;;;5050493;28;19924;-80
2022/07/05 02:33:26;;;;;;;;;;;16.50;71.80;;;;;;5051963;28;19913;-80
2022/07/05 02:35:52;;;;;;;;;;;16.50;71.80;;;;;;5052047;28;19908;-80
2022/07/05 02:38:17;;;;;;;;;;;16.60;71.90;;;;;;5052495;28;20281;-80
2022/07/05 02:40:43;;;;;;;;;;;16.60;71.90;;;;;;5047006;28;20361;-80
2022/07/05 02:43:11;;;;;;;;;;;16.70;71.70;;;;;;5049117;28;19917;-80
2022/07/05 02:45:36;;;;;;;;;;;16.70;71.60;;;;;;5052176;28;20369;-80
2022/07/05 02:48:02;;;;;;;;;;;16.70;71.50;;;;;;5059536;28;20019;-80
2022/07/05 02:50:27;;;;;;;;;;;16.60;71.80;;;;;;5054780;22;20019;-84
2022/07/05 02:52:53;;;;;;;;;;;16.50;72.20;;;;;;5033059;28;20379;-84
2022/07/05 02:55:18;;;;;;;;;;;16.50;72.90;;;;;;5035371;28;19917;-83
2022/07/05 02:57:44;;;;;;;;;;;16.50;72.50;;;;;;5033263;28;20004;-83
2022/07/05 03:00:10;;;;;;;;;;;16.50;72.30;;;;;;5034263;28;19909;-84
2022/07/05 03:02:35;;;;;;;;;;;16.50;72.70;;;;;;5033825;28;20015;-84
2022/07/05 03:05:00;;;;;;;;;;;16.60;72.70;;;;;;5031586;28;19914;-84
2022/07/05 03:07:26;;;;;;;;;;;16.60;72.20;;;;;;5030561;28;19936;-83
2022/07/05 03:09:51;;;;;;;;;;;16.70;72.10;;;;;;5032545;28;20375;-84
2022/07/05 03:12:17;;;;;;;;;;;16.60;72.40;;;;;;5027024;28;20292;-84
2022/07/05 03:14:42;;;;;;;;;;;16.60;72.60;;;;;;5031697;28;19924;-84
2022/07/05 03:17:08;;;;;;;;;;;16.60;72.80;;;;;;5031630;28;19943;-84
2022/07/05 03:19:33;;;;;;;;;;;16.60;73.10;;;;;;5031893;28;19971;-84
2022/07/05 03:21:58;;;;;;;;;;;16.50;73.10;;;;;;5042110;28;19978;-83
2022/07/05 03:24:24;;;;;;;;;;;16.50;73.20;;;;;;5054177;28;19905;-83
2022/07/05 03:26:49;;;;;;;;;;;16.50;73.00;;;;;;5034652;28;20002;-84
2022/07/05 03:29:15;;;;;;;;;;;16.30;73.40;;;;;;5031200;28;19935;-83
2022/07/05 03:31:40;;;;;;;;;;;16.20;73.50;;;;;;5031333;28;20055;-84
2022/07/05 03:34:06;;;;;;;;;;;16.20;73.70;;;;;;5039092;28;19951;-83
2022/07/05 03:36:31;;;;;;;;;;;16.30;73.70;;;;;;5048207;28;19917;-83
2022/07/05 03:38:57;;;;;;;;;;;16.30;73.70;;;;;;5053421;28;19988;-83
2022/07/05 03:41:22;;;;;;;;;;;16.40;73.40;;;;;;5040129;28;19920;-84
2022/07/05 03:43:48;;;;;;;;;;;16.50;73.50;;;;;;5032126;28;19945;-84
2022/07/05 03:46:13;;;;;;;;;;;16.50;73.60;;;;;;5032424;28;19917;-84
2022/07/05 03:48:39;;;;;;;;;;;16.50;73.60;;;;;;5032087;28;19928;-84
2022/07/05 03:51:04;;;;;;;;;;;16.40;73.70;;;;;;5031025;28;19992;-83
2022/07/05 03:53:29;;;;;;;;;;;16.50;73.70;;;;;;5021511;28;19939;-83
2022/07/05 03:55:55;;;;;;;;;;;16.50;73.70;;;;;;5030005;28;19963;-83
2022/07/05 03:58:20;;;;;;;;;;;16.50;73.70;;;;;;5029866;28;19917;-83
2022/07/05 04:00:46;;;;;;;;;;;16.50;74.00;;;;;;5029615;28;20359;-83
2022/07/05 04:03:11;;;;;;;;;;;16.50;73.70;;;;;;5028683;28;19921;-84
2022/07/05 04:05:37;;;;;;;;;;;16.50;73.70;;;;;;5028722;28;19996;-83
2022/07/05 04:08:02;;;;;;;;;;;16.40;73.90;;;;;;5037997;28;19949;-82
2022/07/05 04:10:28;;;;;;;;;;;16.30;74.10;;;;;;5044908;28;20438;-82
2022/07/05 04:12:53;;;;;;;;;;;16.40;74.00;;;;;;5028189;28;19913;-82
2022/07/05 04:15:19;;;;;;;;;;;16.30;74.40;;;;;;5029151;28;19909;-83
2022/07/05 04:17:55;;;;;;;;;;;16.30;74.20;;;;;;5023147;28;19910;-82
2022/07/05 04:20:21;;;;;;;;;;;16.40;74.00;;;;;;5028315;28;20342;-82
2022/07/05 04:22:48;;;;;;;;;;;16.50;74.00;;;;;;5029219;28;20031;-82
2022/07/05 04:25:16;;;;;;;;;;;16.50;74.30;;;;;;5029375;28;19910;-82
2022/07/05 04:27:45;;;;;;;;;;;16.50;74.40;;;;;;5025238;28;19929;-83
2022/07/05 04:30:11;;;;;;;;;;;16.50;74.20;;;;;;5019543;28;19914;-83
2022/07/05 04:32:37;;;;;;;;;;;16.50;74.20;;;;;;5029207;28;19917;-82
2022/07/05 04:35:02;;;;;;;;;;;16.60;74.20;;;;;;5029053;28;19935;-82
2022/07/05 04:37:28;;;;;;;;;;;16.60;73.90;;;;;;5028221;28;20062;-82
2022/07/05 04:39:53;;;;;;;;;;;16.50;73.80;;;;;;5028425;28;19920;-83
2022/07/05 04:42:19;;;;;;;;;;;16.60;74.00;;;;;;5028115;28;19996;-83
2022/07/05 04:44:44;;;;;;;;;;;16.60;74.10;;;;;;5028407;28;19913;-82
2022/07/05 04:47:09;;;;;;;;;;;16.70;74.40;;;;;;5028214;28;19920;-83
2022/07/05 04:49:35;;;;;;;;;;;16.60;74.00;;;;;;5028641;28;20293;-84
2022/07/05 04:52:00;;;;;;;;;;;16.60;74.50;;;;;;5028728;28;19909;-82
2022/07/05 04:54:26;;;;;;;;;;;16.70;73.70;;;;;;5029678;28;19913;-82
2022/07/05 04:56:51;;;;;;;;;;;16.80;73.00;;;;;;5030345;28;20058;-83
2022/07/05 04:59:17;;;;;;;;;;;16.70;73.00;;;;;;5029376;28;19959;-83
2022/07/05 05:01:42;;;;;;;;;;;16.80;73.10;;;;;;5032939;28;19959;-83
2022/07/05 05:04:07;;;;;;;;;;;16.80;73.30;;;;;;5034429;28;19960;-83
2022/07/05 05:06:33;;;;;;;;;;;16.90;73.50;;;;;;5033143;28;19925;-83
2022/07/05 05:08:58;;;;;;;;;;;17.00;73.20;;;;;;5034579;28;19917;-84
2022/07/05 05:11:24;;;;;;;;;;;16.90;72.80;;;;;;5034261;28;19913;-84
2022/07/05 05:13:49;;;;;;;;;;;17.00;71.90;;;;;;5033951;28;19913;-83
2022/07/05 05:16:15;;;;;;;;;;;17.00;72.10;;;;;;5036307;28;19909;-83
2022/07/05 05:18:40;;;;;;;;;;;17.00;72.40;;;;;;5035391;28;19917;-83
2022/07/05 05:21:06;;;;;;;;;;;17.10;71.40;;;;;;5036316;28;19909;-83
2022/07/05 05:23:31;;;;;;;;;;;17.10;71.30;;;;;;5027415;28;20362;-83
2022/07/05 05:25:57;;;;;;;;;;;17.30;72.30;;;;;;5035058;28;19909;-83
2022/07/05 05:28:22;;;;;;;;;;;17.40;72.70;;;;;;5032037;28;20002;-84
2022/07/05 05:30:47;;;;;;;;;;;17.50;73.10;;;;;;5033781;28;19913;-83
2022/07/05 05:33:13;;;;;;;;;;;17.60;72.70;;;;;;5035355;28;19913;-83
2022/07/05 05:35:38;;;;;;;;;;;17.60;71.50;;;;;;5038463;28;19963;-84
2022/07/05 05:38:04;;;;;;;;;;;17.60;69.40;;;;;;5036522;28;19921;-84
2022/07/05 05:40:29;;;;;;;;;;;17.60;69.20;;;;;;5044811;28;20012;-83
2022/07/05 05:42:55;;;;;;;;;;;17.70;68.80;;;;;;5054668;28;19905;-82
2022/07/05 05:45:21;;;;;;;;;;;17.60;68.00;;;;;;5053000;28;19945;-84
2022/07/05 05:47:51;;;;;;;;;;;17.60;68.40;;;;;;5037325;28;19924;-83
2022/07/05 05:50:23;;;;;;;;;;;17.60;69.10;;;;;;5032220;28;19942;-83
2022/07/05 05:52:49;;;;;;;;;;;17.50;69.40;;;;;;5054793;28;19913;-83
2022/07/05 05:55:14;;;;;;;;;;;17.50;69.30;;;;;;5055301;28;19985;-82
2022/07/05 05:57:40;;;;;;;;;;;17.60;69.10;;;;;;5039897;28;19975;-82
2022/07/05 06:00:06;;;;;;;;;;;17.60;68.80;;;;;;5032404;28;19980;-83
2022/07/05 06:02:32;;;;;;;;;;;17.60;69.50;;;;;;5046386;28;20605;-84
2022/07/05 06:04:58;;;;;;;;;;;17.70;67.90;;;;;;5034644;28;19909;-84
2022/07/05 06:07:23;;;;;;;;;;;17.70;68.40;;;;;;5035127;28;19917;-84
2022/07/05 06:09:49;;;;;;;;;;;17.80;69.20;;;;;;5039436;28;19909;-84
2022/07/05 06:12:14;;;;;;;;;;;17.80;68.60;;;;;;5034779;28;19913;-83
2022/07/05 06:14:40;;;;;;;;;;;17.90;67.90;;;;;;5033479;28;19917;-84
2022/07/05 06:17:05;;;;;;;;;;;18.00;68.30;;;;;;5035975;28;19972;-84
2022/07/05 06:19:31;;;;;;;;;;;18.10;66.40;;;;;;5032324;28;19920;-84
2022/07/05 06:21:56;;;;;;;;;;;18.10;66.90;;;;;;5033941;28;19913;-84
2022/07/05 06:24:21;;;;;;;;;;;18.20;66.00;;;;;;5032762;28;20016;-84
2022/07/05 06:26:47;;;;;;;;;;;18.30;66.30;;;;;;5033024;28;19913;-84
2022/07/05 06:29:12;;;;;;;;;;;18.30;66.20;;;;;;5031032;28;19963;-83
2022/07/05 06:31:38;;;;;;;;;;;18.40;65.50;;;;;;5032633;28;19917;-84
2022/07/05 06:34:03;;;;;;;;;;;18.40;64.30;;;;;;5021696;28;20376;-84
2022/07/05 06:36:29;;;;;;;;;;;18.60;63.80;;;;;;5030911;28;19953;-83
2022/07/05 06:38:54;;;;;;;;;;;18.60;63.20;;;;;;5030078;28;19913;-82
2022/07/05 06:41:20;;;;;;;;;;;18.70;63.20;;;;;;5018494;28;19939;-83
2022/07/05 06:43:45;;;;;;;;;;;18.80;62.10;;;;;;5025864;28;19936;-82
2022/07/05 06:46:11;;;;;;;;;;;18.80;63.20;;;;;;5028103;28;19913;-83
2022/07/05 06:48:36;;;;;;;;;;;18.80;63.60;;;;;;5020140;28;19917;-84
2022/07/05 06:51:02;;;;;;;;;;;19.00;62.00;;;;;;5026497;28;19913;-83
2022/07/05 06:53:27;;;;;;;;;;;19.00;61.70;;;;;;5039934;28;19908;-83
2022/07/05 06:55:53;;;;;;;;;;;19.00;61.60;;;;;;5047583;28;19917;-83
2022/07/05 06:58:18;;;;;;;;;;;19.20;61.50;;;;;;5027226;28;20218;-83
2022/07/05 07:00:44;;;;;;;;;;;19.10;61.80;;;;;;5030433;28;19988;-84
2022/07/05 07:03:09;;;;;;;;;;;19.20;61.50;;;;;;5027850;28;19913;-83
2022/07/05 07:05:35;;;;;;;;;;;19.20;60.80;;;;;;5031082;28;20016;-85
2022/07/05 07:10:46;;;;;;;;;;;19.40;61.20;;;;;;5022029;28;21164;-85
2022/07/05 07:13:11;;;;;;;;;;;19.40;60.80;;;;;;5026177;28;19917;-84
2022/07/05 07:15:40;;;;;;;;;;;19.50;59.50;;;;;;5024316;28;19929;-85
2022/07/05 07:18:06;;;;;;;;;;;19.70;58.10;;;;;;5026711;28;19928;-84
2022/07/05 07:20:32;;;;;;;;;;;19.60;58.80;;;;;;5022627;28;19921;-84
2022/07/05 07:22:57;;;;;;;;;;;19.70;58.70;;;;;;5023524;28;19921;-83
2022/07/05 07:25:23;;;;;;;;;;;19.70;58.40;;;;;;5025986;28;19964;-83
2022/07/05 07:27:49;;;;;;;;;;;19.70;58.60;;;;;;5032706;28;20088;-83
2022/07/05 07:30:16;;;;;;;;;;;19.80;57.40;;;;;;5045278;28;19952;-84
2022/07/05 07:32:41;;;;;;;;;;;19.80;58.10;;;;;;5057228;28;20295;-83
2022/07/05 07:35:07;;;;;;;;;;;19.90;57.60;;;;;;5048620;28;19917;-84
2022/07/05 07:37:33;;;;;;;;;;;20.00;56.40;;;;;;5044340;28;19921;-83
2022/07/05 07:39:58;;;;;;;;;;;20.10;55.10;;;;;;5048934;28;19984;-83
2022/07/05 07:42:24;;;;;;;;;;;20.10;55.10;;;;;;5044188;28;19909;-84
2022/07/05 07:44:50;;;;;;;;;;;20.10;55.10;;;;;;5044358;28;19909;-84
2022/07/05 07:47:15;;;;;;;;;;;20.10;54.70;;;;;;5043378;28;19928;-84
2022/07/05 07:49:41;;;;;;;;;;;20.00;55.20;;;;;;5039667;28;19917;-83
2022/07/05 07:52:06;;;;;;;;;;;20.00;55.80;;;;;;5040686;28;19920;-83
2022/07/05 07:54:32;;;;;;;;;;;20.00;56.30;;;;;;5041956;28;19924;-83
2022/07/05 07:56:59;;;;;;;;;;;20.10;54.60;;;;;;5039814;28;19924;-84
2022/07/05 07:59:25;;;;;;;;;;;20.10;54.70;;;;;;5037625;28;19920;-84
2022/07/05 08:01:50;;;;;;;;;;;20.10;55.00;;;;;;5030008;28;19905;-82
2022/07/05 08:04:15;;;;;;;;;;;20.40;54.50;;;;;;5049990;28;20085;-84
2022/07/05 08:06:41;;;;;;;;;;;20.40;54.30;;;;;;5044215;28;19940;-84
2022/07/05 08:09:07;;;;;;;;;;;20.50;53.40;;;;;;5044381;28;20008;-84
2022/07/05 08:11:32;;;;;;;;;;;20.50;53.80;;;;;;5049677;28;19947;-84
2022/07/05 08:13:58;;;;;;;;;;;20.60;53.60;;;;;;5048304;28;19913;-84
2022/07/05 08:16:23;;;;;;;;;;;20.90;52.60;;;;;;5047231;28;20355;-84
2022/07/05 08:21:38;;;;;;;;;;;21.00;52.00;;;;;;5041306;28;19937;-84
2022/07/05 08:24:07;;;;;;;;;;;21.10;51.30;;;;;;5041776;28;19909;-84
2022/07/05 08:26:33;;;;;;;;;;;21.20;51.60;;;;;;5039668;28;19920;-84
2022/07/05 08:29:01;;;;;;;;;;;21.30;51.00;;;;;;5040491;28;19913;-83
2022/07/05 08:31:27;;;;;;;;;;;21.30;51.40;;;;;;5041088;28;19913;-83
2022/07/05 08:33:52;;;;;;;;;;;21.20;50.80;;;;;;5040271;28;19913;-83
2022/07/05 08:36:18;;;;;;;;;;;21.20;51.50;;;;;;5041396;28;19941;-82
2022/07/05 08:38:43;;;;;;;;;;;21.30;51.70;;;;;;5042828;28;19909;-83
2022/07/05 08:41:09;;;;;;;;;;;21.50;51.10;;;;;;5043471;28;19915;-84
2022/07/05 08:43:36;;;;;;;;;;;21.70;51.30;;;;;;5042269;28;19909;-85
2022/07/05 08:46:02;;;;;;;;;;;22.00;49.70;;;;;;5041873;28;20387;-84
2022/07/05 08:48:27;;;;;;;;;;;22.20;48.30;;;;;;5040153;28;19913;-84
2022/07/05 08:50:54;;;;;;;;;;;22.00;48.30;;;;;;5039379;28;19913;-83
2022/07/05 08:53:20;;;;;;;;;;;22.00;47.20;;;;;;5057256;28;19948;-83
2022/07/05 08:55:46;;;;;;;;;;;22.00;48.00;;;;;;5025554;28;19936;-83
2022/07/05 08:58:11;;;;;;;;;;;21.90;48.80;;;;;;5016295;28;19916;-83
2022/07/05 09:00:41;;;;;;;;;;;21.80;49.60;;;;;;5034857;28;20047;-83
2022/07/05 09:03:07;;;;;;;;;;;21.80;49.70;;;;;;5037380;28;20015;-84
2022/07/05 09:05:39;;;;;;;;;;;21.80;49.40;;;;;;5038670;28;19953;-84
2022/07/05 09:08:06;;;;;;;;;;;22.00;48.90;;;;;;5037666;28;19936;-83
2022/07/05 09:10:32;;;;;;;;;;;22.20;48.60;;;;;;5040812;28;19913;-83
2022/07/05 09:12:57;;;;;;;;;;;22.10;49.70;;;;;;5050923;28;19986;-83
2022/07/05 09:15:23;;;;;;;;;;;22.00;50.10;;;;;;5056728;28;19981;-83
2022/07/05 09:17:49;;;;;;;;;;;21.90;49.80;;;;;;5051738;28;19916;-84
2022/07/05 09:20:15;;;;;;;;;;;22.00;49.70;;;;;;5034533;28;19913;-82
2022/07/05 09:22:45;;;;;;;;;;;22.00;50.40;;;;;;5033167;28;19936;-83
2022/07/05 09:25:37;;;;;;;;;;;21.90;51.00;;;;;;5034352;28;19915;-82
2022/07/05 09:28:04;;;;;;;;;;;22.00;49.80;;;;;;5032630;28;19936;-83
2022/07/05 09:30:30;;;;;;;;;;;22.00;49.90;;;;;;5037233;28;19909;-85
2022/07/05 09:33:07;;;;;;;;;;;21.80;49.50;;;;;;5040702;28;20026;-83
2022/07/05 09:35:34;;;;;;;;;;;21.80;49.70;;;;;;5039547;28;19915;-83
2022/07/05 09:38:02;;;;;;;;;;;21.70;49.50;;;;;;5056365;28;20020;-83
2022/07/05 09:40:29;;;;;;;;;;;21.90;49.20;;;;;;5046051;28;19909;-83
2022/07/05 09:43:09;;;;;;;;;;;22.00;47.30;;;;;;5069785;28;19965;-83
2022/07/05 09:45:35;;;;;;;;;;;22.20;47.60;;;;;;5054908;28;20337;-84
2022/07/05 09:48:01;;;;;;;;;;;22.20;48.40;;;;;;5047206;28;19917;-83
2022/07/05 09:50:33;;;;;;;;;;;22.50;47.30;;;;;;5044719;28;19918;-83
2022/07/05 09:52:58;;;;;;;;;;;22.50;46.20;;;;;;5043251;28;19928;-83
2022/07/05 09:55:24;;;;;;;;;;;22.60;46.10;;;;;;5046761;28;20015;-84
2022/07/05 09:57:50;;;;;;;;;;;22.80;45.90;;;;;;5044768;28;19909;-83
2022/07/05 10:00:17;;;;;;;;;;;23.00;44.90;;;;;;5045688;28;20410;-85
2022/07/05 10:02:43;;;;;;;;;;;23.10;44.90;;;;;;5046297;28;19940;-84
2022/07/05 10:05:16;;;;;;;;;;;22.90;45.80;;;;;;5045660;28;19913;-84
2022/07/05 10:07:52;;;;;;;;;;;22.70;45.90;;;;;;5045101;28;19913;-84
2022/07/05 10:10:18;;;;;;;;;;;22.60;45.70;;;;;;5045516;28;20072;-84
2022/07/05 10:12:45;;;;;;;;;;;22.40;45.20;;;;;;5045633;28;19921;-85
2022/07/05 10:15:11;;;;;;;;;;;22.00;46.30;;;;;;5046774;28;19924;-84
2022/07/05 10:17:40;;;;;;;;;;;22.00;46.00;;;;;;5045110;28;19913;-85
2022/07/05 10:20:10;;;;;;;;;;;22.00;46.60;;;;;;5039364;28;19913;-84
2022/07/05 10:22:36;;;;;;;;;;;22.10;45.80;;;;;;5053773;28;19905;-84
2022/07/05 10:25:02;;;;;;;;;;;22.10;44.50;;;;;;5071089;28;19970;-84
2022/07/05 10:27:27;;;;;;;;;;;22.10;45.80;;;;;;5046711;28;20011;-84
2022/07/05 10:29:54;;;;;;;;;;;22.10;44.90;;;;;;5045066;28;19995;-84
2022/07/05 10:32:21;;;;;;;;;;;22.20;44.50;;;;;;5043922;28;19909;-84
2022/07/05 10:34:47;;;;;;;;;;;22.50;42.40;;;;;;5044213;28;19909;-84
2022/07/05 10:37:12;;;;;;;;;;;22.50;42.70;;;;;;5044641;28;19976;-83
2022/07/05 10:39:38;;;;;;;;;;;22.70;43.10;;;;;;5043722;28;19972;-83
2022/07/05 10:42:05;;;;;;;;;;;23.00;42.20;;;;;;5046255;28;20411;-84
2022/07/05 10:44:31;;;;;;;;;;;23.30;42.00;;;;;;5045245;28;19920;-84
2022/07/05 10:47:06;;;;;;;;;;;23.50;41.40;;;;;;5045117;28;20376;-84
2022/07/05 10:49:33;;;;;;;;;;;23.50;42.00;;;;;;5044392;28;20066;-85
2022/07/05 10:51:59;;;;;;;;;;;23.40;42.70;;;;;;5044324;28;19920;-84
2022/07/05 10:54:24;;;;;;;;;;;23.10;42.70;;;;;;5043493;28;20004;-84
2022/07/05 10:57:08;;;;;;;;;;;22.70;43.30;;;;;;5042820;28;19909;-84
2022/07/05 10:59:52;;;;;;;;;;;22.50;42.60;;;;;;5043006;28;19966;-84
2022/07/05 11:02:18;;;;;;;;;;;22.40;42.80;;;;;;5043229;28;19916;-84
2022/07/05 11:04:43;;;;;;;;;;;22.40;42.70;;;;;;5043165;28;19909;-84
2022/07/05 11:07:09;;;;;;;;;;;22.40;43.10;;;;;;5043777;28;19909;-84
2022/07/05 11:09:34;;;;;;;;;;;22.50;42.30;;;;;;5042341;28;19919;-84
2022/07/05 11:12:04;;;;;;;;;;;22.70;41.70;;;;;;5046969;28;19909;-84
2022/07/05 11:14:32;;;;;;;;;;;22.90;42.10;;;;;;5056028;28;19928;-87
2022/07/05 11:17:11;;;;;;;;;;;23.20;40.90;;;;;;5052829;28;19932;-84
2022/07/05 11:19:56;;;;;;;;;;;23.00;40.50;;;;;;5048264;28;19924;-84
2022/07/05 11:22:21;;;;;;;;;;;23.00;41.70;;;;;;5044829;28;19944;-83
2022/07/05 11:24:47;;;;;;;;;;;22.90;40.80;;;;;;5043428;28;19909;-85
2022/07/05 11:27:12;;;;;;;;;;;23.00;40.50;;;;;;5042908;28;19917;-82
2022/07/05 11:29:45;;;;;;;;;;;23.20;40.00;;;;;;5058747;28;19913;-83
2022/07/05 11:32:13;;;;;;;;;;;23.40;39.80;;;;;;5041499;28;19920;-84
2022/07/05 11:34:39;;;;;;;;;;;23.40;40.30;;;;;;5048694;28;19909;-84
2022/07/05 11:37:21;;;;;;;;;;;23.30;39.30;;;;;;5052364;28;19908;-84
2022/07/05 11:40:06;;;;;;;;;;;23.20;40.30;;;;;;5048742;28;19946;-84
2022/07/05 11:42:34;;;;;;;;;;;23.20;39.80;;;;;;5061357;28;19917;-84
2022/07/05 11:45:00;;;;;;;;;;;23.30;39.80;;;;;;5057215;28;19916;-84
2022/07/05 11:47:26;;;;;;;;;;;23.50;38.70;;;;;;5057940;28;19913;-85
2022/07/05 11:49:58;;;;;;;;;;;23.60;39.40;;;;;;5056755;28;20369;-85
2022/07/05 11:52:27;;;;;;;;;;;23.50;40.80;;;;;;5042275;28;19968;-84
2022/07/05 11:54:53;;;;;;;;;;;23.30;40.30;;;;;;5042361;28;19970;-84
2022/07/05 11:57:19;;;;;;;;;;;23.10;41.90;;;;;;5057716;28;19956;-84
2022/07/05 11:59:45;;;;;;;;;;;23.20;41.80;;;;;;5041402;28;19909;-84
2022/07/05 12:02:11;;;;;;;;;;;23.10;42.10;;;;;;5042075;28;19909;-84
2022/07/05 12:04:36;;;;;;;;;;;23.20;42.10;;;;;;5042913;28;19916;-85
2022/07/05 12:07:01;;;;;;;;;;;23.10;42.70;;;;;;5031805;28;19913;-83
2022/07/05 12:12:42;;;;;;;;;;;23.20;42.30;;;;;;5033473;28;20000;-81
2022/07/05 12:15:05;;;;;;;;;;;23.40;41.30;;;;;;5039775;28;19931;-82
2022/07/05 12:17:33;;;;;;;;;;;23.50;41.20;;;;;;5039558;28;19909;-84
2022/07/05 12:19:58;;;;;;;;;;;23.40;41.00;;;;;;5039600;28;19909;-84
2022/07/05 12:22:37;;;;;;;;;;;23.30;40.60;;;;;;5021038;28;19917;-84
2022/07/05 12:25:04;;;;;;;;;;;23.30;40.60;;;;;;5018137;28;19914;-84
2022/07/05 12:27:31;;;;;;;;;;;23.20;41.30;;;;;;5018236;28;19913;-83
2022/07/05 12:29:56;;;;;;;;;;;23.20;42.00;;;;;;5019696;28;20280;-83
2022/07/05 12:32:22;;;;;;;;;;;23.30;40.70;;;;;;5018965;28;19913;-84
2022/07/05 12:34:47;;;;;;;;;;;23.40;40.30;;;;;;5021209;28;19914;-84
2022/07/05 12:37:23;;;;;;;;;;;23.30;40.10;;;;;;5030334;28;19913;-84
2022/07/05 12:39:49;;;;;;;;;;;23.30;39.90;;;;;;5039830;28;19932;-84
2022/07/05 12:42:32;;;;;;;;;;;23.10;40.70;;;;;;5042158;28;19957;-85
2022/07/05 12:45:16;;;;;;;;;;;23.20;41.30;;;;;;5041154;28;19902;-84
2022/07/05 12:47:54;;;;;;;;;;;23.50;39.20;;;;;;5040016;28;19906;-85
2022/07/05 12:50:21;;;;;;;;;;;23.70;39.50;;;;;;5037729;28;19925;-84
2022/07/05 12:58:44;;;;;;;;;;;24.10;39.20;;;;;;5032513;28;19975;-85
2022/07/05 13:01:23;;;;;;;;;;;24.10;39.20;;;;;;5030343;28;20280;-84
2022/07/05 13:03:59;;;;;;;;;;;24.00;39.00;;;;;;5030554;28;19980;-84
2022/07/05 13:06:44;;;;;;;;;;;23.90;39.20;;;;;;5029811;28;19910;-85
2022/07/05 13:09:11;;;;;;;;;;;23.80;39.90;;;;;;5046865;28;20008;-84
2022/07/05 13:11:36;;;;;;;;;;;23.60;40.80;;;;;;5048726;28;19910;-84
2022/07/05 13:14:02;;;;;;;;;;;23.70;39.80;;;;;;5048207;28;20004;-84
2022/07/05 13:16:27;;;;;;;;;;;23.90;39.40;;;;;;5048522;28;20007;-84
2022/07/05 13:18:53;;;;;;;;;;;23.80;39.00;;;;;;5062662;28;20396;-84
2022/07/05 13:21:18;;;;;;;;;;;23.80;38.40;;;;;;5056446;28;19948;-84
2022/07/05 13:23:44;;;;;;;;;;;23.80;39.10;;;;;;5041761;28;19989;-84
2022/07/05 13:26:09;;;;;;;;;;;23.70;39.30;;;;;;5045370;28;19916;-84
2022/07/05 13:28:35;;;;;;;;;;;23.80;38.60;;;;;;5041920;28;19917;-84
2022/07/05 13:31:00;;;;;;;;;;;23.80;38.40;;;;;;5043364;28;19909;-84
2022/07/05 13:33:26;;;;;;;;;;;23.90;39.40;;;;;;5043559;28;19909;-84
2022/07/05 13:35:51;;;;;;;;;;;23.90;39.50;;;;;;5044915;28;19909;-84
2022/07/05 13:38:19;;;;;;;;;;;24.00;40.20;;;;;;5041925;28;19916;-85
2022/07/05 13:40:45;;;;;;;;;;;24.00;37.90;;;;;;5041786;28;19912;-84
2022/07/05 13:43:10;;;;;;;;;;;24.00;38.30;;;;;;5042624;28;20303;-82
2022/07/05 13:45:36;;;;;;;;;;;24.10;38.50;;;;;;5043224;28;20593;-84
2022/07/05 13:48:02;;;;;;;;;;;24.40;38.00;;;;;;5028216;28;19941;-84
2022/07/05 13:50:34;;;;;;;;;;;24.70;38.20;;;;;;5019940;28;20055;-84
2022/07/05 13:53:00;;;;;;;;;;;24.60;36.80;;;;;;5028667;28;19909;-85
2022/07/05 13:55:25;;;;;;;;;;;24.50;36.90;;;;;;5039647;28;19916;-84
2022/07/05 13:57:51;;;;;;;;;;;24.50;37.30;;;;;;5039607;28;20339;-84
2022/07/05 14:00:17;;;;;;;;;;;24.20;37.70;;;;;;5039891;28;20345;-84
2022/07/05 14:02:42;;;;;;;;;;;24.00;38.70;;;;;;5039735;28;20004;-84
2022/07/05 14:05:08;;;;;;;;;;;24.10;38.80;;;;;;5042362;28;19956;-84
2022/07/05 14:07:34;;;;;;;;;;;24.00;39.10;;;;;;5041567;28;19924;-84
2022/07/05 14:09:59;;;;;;;;;;;23.80;38.90;;;;;;5041102;28;19915;-84
2022/07/05 14:12:25;;;;;;;;;;;23.70;40.10;;;;;;5044578;28;19909;-85
2022/07/05 14:14:50;;;;;;;;;;;23.70;39.50;;;;;;5056961;28;19932;-85
2022/07/05 14:17:15;;;;;;;;;;;23.80;40.50;;;;;;5052859;28;19914;-84
2022/07/05 14:19:41;;;;;;;;;;;24.00;40.00;;;;;;5050557;28;19970;-85
2022/07/05 14:22:07;;;;;;;;;;;24.20;39.40;;;;;;5064738;28;19910;-84
2022/07/05 14:24:32;;;;;;;;;;;24.00;40.60;;;;;;5048423;28;19952;-84
2022/07/05 14:26:58;;;;;;;;;;;24.10;40.20;;;;;;5041831;28;20029;-85
2022/07/05 14:29:23;;;;;;;;;;;24.20;40.20;;;;;;5024228;28;19913;-84
2022/07/05 14:31:49;;;;;;;;;;;24.20;40.80;;;;;;5023753;28;19965;-84